createdAt,value
2018-06-22T00:01:27.706Z,8.17
2018-06-22T00:03:55.972Z,8.33
2018-06-22T00:06:24.288Z,7.67
2018-06-22T00:08:52.891Z,8.20
2018-06-22T00:11:21.167Z,6.53
2018-06-22T00:13:49.434Z,11.50
2018-06-22T00:16:17.707Z,7.30
2018-06-22T00:18:46.263Z,6.40
2018-06-22T00:21:14.514Z,6.73
2018-06-22T00:23:42.812Z,8.53
2018-06-22T00:26:11.062Z,8.27
2018-06-22T00:28:39.319Z,10.90
2018-06-22T00:31:07.588Z,8.57
2018-06-22T00:33:35.893Z,6.87
2018-06-22T00:36:04.135Z,6.00
2018-06-22T00:38:32.408Z,10.37
2018-06-22T00:41:00.914Z,7.70
2018-06-22T00:43:29.240Z,12.77
2018-06-22T00:45:57.529Z,11.10
2018-06-22T00:48:25.787Z,11.47
2018-06-22T00:50:54.252Z,9.40
2018-06-22T00:53:33.830Z,9.60
2018-06-22T00:56:02.081Z,11.67
2018-06-22T00:58:30.378Z,5.90
2018-06-22T01:00:58.921Z,8.10
2018-06-22T01:03:27.178Z,11.20
2018-06-22T01:05:55.454Z,12.67
2018-06-22T01:08:23.699Z,9.73
2018-06-22T01:10:51.964Z,8.77
2018-06-22T01:13:20.250Z,9.77
2018-06-22T01:15:48.530Z,7.17
2018-06-22T01:18:16.763Z,6.40
2018-06-22T01:20:45.343Z,7.33
2018-06-22T01:23:13.951Z,8.80
2018-06-22T01:25:42.239Z,7.70
2018-06-22T01:28:10.512Z,8.57
2018-06-22T01:30:38.756Z,12.53
2018-06-22T01:33:07.063Z,9.33
2018-06-22T01:35:35.310Z,11.27
2018-06-22T01:38:03.583Z,8.73
2018-06-22T01:40:31.863Z,11.03
2018-06-22T01:43:00.141Z,9.57
2018-06-22T01:45:28.371Z,9.87
2018-06-22T01:47:56.631Z,7.23
2018-06-22T01:50:24.862Z,11.00
2018-06-22T01:52:53.164Z,8.60
2018-06-22T01:55:21.411Z,9.67
2018-06-22T01:57:49.685Z,9.60
2018-06-22T02:00:17.955Z,8.60
2018-06-22T02:02:46.225Z,9.97
2018-06-22T02:05:14.490Z,9.23
2018-06-22T02:07:42.766Z,10.30
2018-06-22T02:10:11.027Z,14.30
2018-06-22T02:12:39.272Z,5.60
2018-06-22T02:15:07.561Z,11.00
2018-06-22T02:17:35.852Z,8.50
2018-06-22T02:20:04.129Z,9.50
2018-06-22T02:22:32.394Z,13.00
2018-06-22T02:25:00.718Z,5.47
2018-06-22T02:27:28.987Z,9.27
2018-06-22T02:29:57.244Z,11.57
2018-06-22T02:32:25.506Z,10.80
2018-06-22T02:34:53.804Z,9.33
2018-06-22T02:37:22.133Z,8.60
2018-06-22T02:39:50.382Z,11.13
2018-06-22T02:42:18.619Z,13.47
2018-06-22T02:44:47.226Z,11.17
2018-06-22T02:47:15.794Z,10.17
2018-06-22T02:49:44.097Z,9.70
2018-06-22T02:52:12.363Z,13.77
2018-06-22T02:54:40.631Z,9.43
2018-06-22T02:57:08.882Z,11.73
2018-06-22T02:59:37.172Z,10.57
2018-06-22T03:02:05.406Z,13.40
2018-06-22T03:04:33.695Z,13.70
2018-06-22T03:07:01.947Z,16.57
2018-06-22T03:09:30.201Z,9.53
2018-06-22T03:11:58.503Z,9.30
2018-06-22T03:14:26.788Z,11.77
2018-06-22T03:16:55.245Z,8.90
2018-06-22T03:19:23.499Z,9.30
2018-06-22T03:21:51.763Z,9.37
2018-06-22T03:24:20.065Z,12.33
2018-06-22T03:26:48.364Z,7.73
2018-06-22T03:29:16.839Z,15.00
2018-06-22T03:31:45.093Z,9.17
2018-06-22T03:34:13.354Z,9.47
2018-06-22T03:36:41.636Z,9.97
2018-06-22T03:39:10.232Z,8.40
2018-06-22T03:41:38.663Z,12.93
2018-06-22T03:44:06.927Z,9.60
2018-06-22T03:46:35.219Z,13.03
2018-06-22T03:49:03.467Z,15.53
2018-06-22T03:51:31.738Z,17.63
2018-06-22T03:54:00.090Z,12.57
2018-06-22T03:56:28.379Z,11.50
2018-06-22T03:58:56.639Z,10.30
2018-06-22T04:01:24.905Z,7.53
2018-06-22T04:03:53.180Z,11.97
2018-06-22T04:06:21.495Z,11.23
2018-06-22T04:08:49.730Z,8.00
2018-06-22T04:11:17.966Z,12.57
2018-06-22T04:13:46.305Z,8.90
2018-06-22T04:16:14.577Z,14.70
2018-06-22T04:18:42.894Z,12.20
2018-06-22T04:21:11.146Z,12.17
2018-06-22T04:23:39.438Z,9.57
2018-06-22T04:26:07.986Z,12.03
2018-06-22T04:28:36.244Z,12.73
2018-06-22T04:31:04.867Z,8.40
2018-06-22T04:33:39.334Z,9.80
2018-06-22T04:36:07.608Z,12.23
2018-06-22T04:38:35.874Z,11.60
2018-06-22T04:41:04.574Z,10.20
2018-06-22T04:43:32.865Z,12.30
2018-06-22T04:46:01.095Z,15.43
2018-06-22T04:48:29.574Z,12.83
2018-06-22T04:50:57.828Z,14.50
2018-06-22T04:53:26.235Z,13.30
2018-06-22T04:55:54.779Z,11.77
2018-06-22T04:58:23.055Z,8.23
2018-06-22T05:00:51.574Z,19.33
2018-06-22T05:03:19.834Z,13.90
2018-06-22T05:05:48.101Z,12.07
2018-06-22T05:08:16.375Z,12.97
2018-06-22T05:10:44.834Z,19.17
2018-06-22T05:13:13.265Z,10.13
2018-06-22T05:15:41.888Z,14.60
2018-06-22T05:18:10.355Z,21.27
2018-06-22T05:20:38.681Z,12.27
2018-06-22T05:23:07.355Z,14.97
2018-06-22T05:25:35.603Z,17.00
2018-06-22T05:28:03.881Z,15.17
2018-06-22T05:30:32.133Z,17.27
2018-06-22T05:33:00.420Z,19.57
2018-06-22T05:35:28.732Z,17.87
2018-06-22T05:37:57.040Z,18.37
2018-06-22T05:40:25.326Z,20.93
2018-06-22T05:42:53.657Z,14.20
2018-06-22T05:45:21.939Z,11.30
2018-06-22T05:47:50.268Z,16.13
2018-06-22T05:50:18.538Z,11.90
2018-06-22T05:52:46.848Z,13.17
2018-06-22T05:55:15.139Z,13.77
2018-06-22T05:57:43.463Z,13.60
2018-06-22T06:00:11.715Z,14.87
2018-06-22T06:02:40.910Z,13.57
2018-06-22T06:05:09.510Z,16.83
2018-06-22T06:07:37.826Z,10.77
2018-06-22T06:10:06.191Z,17.60
2018-06-22T06:12:34.801Z,14.03
2018-06-22T06:15:03.229Z,15.10
2018-06-22T06:17:31.505Z,19.37
2018-06-22T06:19:59.808Z,18.23
2018-06-22T06:22:28.484Z,17.73
2018-06-22T06:24:56.740Z,14.33
2018-06-22T06:27:25.186Z,12.90
2018-06-22T06:29:53.777Z,19.50
2018-06-22T06:34:56.426Z,17.97
2018-06-22T06:37:28.516Z,13.50
2018-06-22T06:39:56.856Z,14.03
2018-06-22T06:42:25.120Z,17.53
2018-06-22T06:44:53.422Z,22.70
2018-06-22T06:47:21.690Z,15.60
2018-06-22T06:49:49.930Z,13.40
2018-06-22T06:52:21.290Z,11.83
2018-06-22T06:54:49.303Z,14.73
2018-06-22T06:57:27.063Z,13.57
2018-06-22T06:59:58.383Z,9.53
2018-06-22T07:02:26.682Z,11.23
2018-06-22T07:04:55.183Z,12.77
2018-06-22T07:07:23.511Z,10.73
2018-06-22T07:09:51.826Z,10.17
2018-06-22T07:12:20.120Z,9.73
2018-06-22T07:14:48.455Z,8.77
2018-06-22T07:17:16.955Z,14.63
2018-06-22T07:19:45.447Z,9.40
2018-06-22T07:22:13.763Z,13.03
2018-06-22T07:24:54.538Z,12.63
2018-06-22T07:27:26.081Z,13.03
2018-06-22T07:29:54.412Z,11.97
2018-06-22T07:32:26.066Z,12.83
2018-06-22T07:34:54.401Z,10.13
2018-06-22T07:37:22.791Z,11.90
2018-06-22T07:39:51.072Z,11.53
2018-06-22T07:42:19.763Z,15.00
2018-06-22T07:44:48.063Z,12.60
2018-06-22T07:47:16.342Z,12.13
2018-06-22T07:49:44.750Z,12.57
2018-06-22T07:52:13.294Z,11.27
2018-06-22T07:54:41.615Z,9.57
2018-06-22T07:57:10.128Z,8.53
2018-06-22T07:59:38.591Z,11.17
2018-06-22T08:02:06.971Z,10.60
2018-06-22T08:04:35.364Z,11.47
2018-06-22T08:07:03.681Z,7.77
2018-06-22T08:09:32.016Z,9.47
2018-06-22T08:12:00.333Z,10.87
2018-06-22T08:14:28.636Z,14.37
2018-06-22T08:23:40.792Z,14.50
2018-06-22T08:26:09.206Z,11.83
2018-06-22T08:28:37.584Z,12.93
2018-06-22T08:31:05.871Z,12.10
2018-06-22T08:33:34.201Z,8.63
2018-06-22T08:36:02.481Z,12.13
2018-06-22T08:38:30.948Z,10.27
2018-06-22T08:40:59.208Z,15.70
2018-06-22T08:43:27.643Z,11.07
2018-06-22T08:45:57.730Z,14.40
2018-06-22T08:48:26.053Z,13.83
2018-06-22T08:50:54.378Z,12.00
2018-06-22T08:53:24.450Z,9.60
2018-06-22T08:55:52.833Z,13.97
2018-06-22T08:58:21.212Z,14.13
2018-06-22T09:00:49.557Z,10.17
2018-06-22T09:03:17.914Z,12.47
2018-06-22T09:05:46.167Z,14.00
2018-06-22T09:08:14.606Z,15.63
2018-06-22T09:10:43.671Z,12.07
2018-06-22T09:13:14.097Z,11.50
2018-06-22T09:15:43.495Z,12.27
2018-06-22T09:18:11.789Z,11.30
2018-06-22T09:23:14.254Z,11.17
2018-06-22T09:25:42.560Z,15.93
2018-06-22T09:28:10.927Z,13.47
2018-06-22T09:30:39.223Z,10.20
2018-06-22T09:33:07.527Z,10.40
2018-06-22T09:35:35.893Z,9.23
2018-06-22T09:38:04.580Z,9.80
2018-06-22T09:40:32.841Z,8.53
2018-06-22T09:43:01.290Z,10.50
2018-06-22T09:45:29.690Z,11.70
2018-06-22T09:47:58.315Z,8.73
2018-06-22T09:50:26.631Z,12.13
2018-06-22T09:52:55.265Z,10.43
2018-06-22T09:55:23.551Z,13.43
2018-06-22T09:57:51.856Z,16.50
2018-06-22T10:00:20.155Z,9.57
2018-06-22T10:02:49.072Z,10.10
2018-06-22T10:05:17.328Z,8.87
2018-06-22T10:07:45.643Z,7.30
2018-06-22T10:10:13.929Z,4.93
2018-06-22T10:12:42.255Z,6.73
2018-06-22T10:15:10.581Z,6.30
2018-06-22T10:17:39.118Z,5.23
2018-06-22T10:20:07.408Z,7.60
2018-06-22T10:22:35.787Z,5.53
2018-06-22T10:25:04.201Z,5.73
2018-06-22T10:27:32.532Z,5.53
2018-06-22T10:30:00.913Z,5.57
2018-06-22T10:32:29.252Z,7.17
2018-06-22T10:34:57.590Z,7.00
2018-06-22T10:37:26.138Z,8.30
2018-06-22T10:39:54.858Z,5.43
2018-06-22T10:42:23.817Z,9.17
2018-06-22T10:44:52.136Z,8.80
2018-06-22T10:47:20.453Z,8.53
2018-06-22T10:49:48.804Z,4.93
2018-06-22T10:52:17.130Z,8.27
2018-06-22T10:54:45.850Z,4.90
2018-06-22T10:57:14.738Z,8.53
2018-06-22T10:59:43.441Z,9.10
2018-06-22T11:02:12.010Z,4.83
2018-06-22T11:04:40.339Z,7.50
2018-06-22T11:07:09.460Z,6.43
2018-06-22T11:09:38.080Z,9.20
2018-06-22T11:12:06.788Z,9.60
2018-06-22T11:14:35.183Z,9.93
2018-06-22T11:17:03.675Z,7.57
2018-06-22T11:19:32.198Z,11.03
2018-06-22T11:22:00.564Z,4.33
2018-06-22T11:24:29.331Z,8.20
2018-06-22T11:26:57.780Z,4.17
2018-06-22T11:29:26.243Z,7.70
2018-06-22T11:31:54.625Z,7.53
2018-06-22T11:34:23.408Z,6.50
2018-06-22T11:36:51.813Z,11.33
2018-06-22T11:39:20.356Z,12.57
2018-06-22T11:41:48.759Z,5.23
2018-06-22T11:44:17.132Z,5.03
2018-06-22T11:46:45.627Z,5.53
2018-06-22T11:49:14.004Z,8.63
2018-06-22T11:51:42.414Z,5.63
2018-06-22T11:54:10.737Z,7.40
2018-06-22T11:56:39.095Z,6.27
2018-06-22T11:59:07.531Z,5.57
2018-06-22T12:01:36.447Z,7.90
2018-06-22T12:04:05.100Z,4.13
2018-06-22T12:06:33.394Z,2.77
2018-06-22T12:09:01.670Z,5.53
2018-06-22T12:11:29.970Z,3.57
2018-06-22T12:13:58.200Z,4.13
2018-06-22T12:16:26.500Z,6.67
2018-06-22T12:18:54.804Z,7.80
2018-06-22T12:21:23.128Z,7.80
2018-06-22T12:23:51.447Z,9.60
2018-06-22T12:26:20.179Z,5.90
2018-06-22T12:28:48.659Z,12.07
2018-06-22T12:31:16.964Z,10.77
2018-06-22T12:33:45.247Z,7.13
2018-06-22T12:36:13.572Z,9.40
2018-06-22T12:38:41.917Z,5.97
2018-06-22T12:41:10.252Z,7.47
2018-06-22T12:43:38.528Z,7.87
2018-06-22T12:46:07.357Z,8.87
2018-06-22T12:48:35.676Z,6.27
2018-06-22T12:51:03.981Z,6.03
2018-06-22T12:53:32.318Z,9.67
2018-06-22T12:56:00.614Z,7.30
2018-06-22T12:58:29.037Z,11.70
2018-06-22T13:00:57.444Z,11.57
2018-06-22T13:03:25.744Z,11.83
2018-06-22T13:05:54.181Z,12.90
2018-06-22T13:08:22.447Z,14.67
2018-06-22T13:10:50.712Z,17.77
2018-06-22T13:13:19.086Z,17.97
2018-06-22T13:15:47.404Z,13.53
2018-06-22T13:18:16.011Z,9.60
2018-06-22T13:20:44.361Z,10.53
2018-06-22T13:23:12.631Z,12.20
2018-06-22T13:25:40.968Z,10.07
2018-06-22T13:28:09.624Z,7.50
2018-06-22T13:30:37.947Z,10.23
2018-06-22T13:33:06.329Z,8.70
2018-06-22T13:35:34.645Z,9.87
2018-06-22T13:38:03.047Z,8.17
2018-06-22T13:40:31.332Z,8.53
2018-06-22T13:42:59.600Z,13.50
2018-06-22T13:45:28.119Z,11.13
2018-06-22T13:47:56.419Z,15.13
2018-06-22T13:50:24.728Z,11.03
2018-06-22T13:52:53.022Z,12.93
2018-06-22T13:55:21.528Z,12.50
2018-06-22T13:57:49.844Z,18.40
2018-06-22T14:00:18.209Z,18.13
2018-06-22T14:02:46.892Z,13.68
2018-06-22T14:05:20.464Z,15.37
2018-06-22T14:07:48.852Z,18.17
2018-06-22T14:10:17.151Z,13.67
2018-06-22T14:12:45.518Z,8.13
2018-06-22T14:15:13.925Z,13.80
2018-06-22T14:17:42.231Z,17.80
2018-06-22T14:20:10.624Z,12.30
2018-06-22T14:22:39.145Z,15.40
2018-06-22T14:25:07.629Z,14.77
2018-06-22T14:27:36.070Z,17.70
2018-06-22T14:30:04.992Z,14.03
2018-06-22T14:32:33.475Z,16.83
2018-06-22T14:35:01.876Z,14.53
2018-06-22T14:37:30.575Z,10.17
2018-06-22T14:39:59.108Z,12.67
2018-06-22T14:42:27.478Z,12.00
2018-06-22T14:44:56.019Z,15.97
2018-06-22T14:47:24.657Z,16.53
2018-06-22T14:49:53.260Z,19.20
2018-06-22T14:52:21.776Z,13.90
2018-06-22T14:54:55.450Z,12.53
2018-06-22T14:57:29.171Z,15.30
2018-06-22T15:00:03.018Z,16.87
2018-06-22T15:02:48.638Z,13.60
2018-06-22T15:05:22.521Z,19.17
2018-06-22T15:07:55.355Z,16.00
2018-06-22T15:10:24.098Z,15.60
2018-06-22T15:12:52.498Z,17.60
2018-06-22T15:15:20.792Z,18.87
2018-06-22T15:17:53.229Z,15.83
2018-06-22T15:20:21.825Z,15.37
2018-06-22T15:22:50.104Z,15.67
2018-06-22T15:25:18.370Z,15.97
2018-06-22T15:27:46.708Z,15.80
2018-06-22T15:30:15.038Z,14.37
2018-06-22T15:32:43.490Z,14.77
2018-06-22T15:35:17.079Z,15.77
2018-06-22T15:37:50.547Z,14.57
2018-06-22T15:40:24.635Z,17.13
2018-06-22T15:42:58.934Z,15.93
2018-06-22T15:45:33.503Z,14.77
2018-06-22T15:48:07.279Z,12.13
2018-06-22T15:50:41.018Z,17.27
2018-06-22T15:53:14.805Z,16.60
2018-06-22T15:55:45.926Z,10.30
2018-06-22T15:58:14.245Z,12.73
2018-06-22T16:00:42.546Z,16.17
2018-06-22T16:03:16.399Z,13.53
2018-06-22T16:05:44.895Z,17.60
2018-06-22T16:08:13.816Z,14.80
2018-06-22T16:10:41.851Z,16.40
2018-06-22T16:13:24.505Z,17.03
2018-06-22T16:15:58.227Z,14.40
2018-06-22T16:18:32.267Z,15.50
2018-06-22T16:21:05.707Z,16.00
2018-06-22T16:23:39.313Z,12.50
2018-06-22T16:26:13.144Z,13.70
2018-06-22T16:28:41.461Z,14.10
2018-06-22T16:31:09.883Z,15.90
2018-06-22T16:33:42.584Z,16.60
2018-06-22T16:36:11.111Z,16.10
2018-06-22T16:38:39.443Z,9.93
2018-06-22T16:41:07.725Z,17.87
2018-06-22T16:43:36.016Z,16.53
2018-06-22T16:46:04.556Z,11.90
2018-06-22T16:48:33.011Z,14.20
2018-06-22T16:51:01.266Z,13.00
2018-06-22T16:53:29.871Z,15.37
2018-06-22T16:55:58.225Z,16.83
2018-06-22T16:58:31.962Z,14.87
2018-06-22T17:01:00.287Z,13.07
2018-06-22T17:03:29.000Z,13.00
2018-06-22T17:05:57.488Z,12.93
2018-06-22T17:08:31.733Z,16.93
2018-06-22T17:11:05.545Z,17.20
2018-06-22T17:13:39.318Z,22.83
2018-06-22T17:16:12.927Z,15.57
2018-06-22T17:18:46.752Z,12.87
2018-06-22T17:21:15.039Z,15.13
2018-06-22T17:23:43.328Z,16.83
2018-06-22T17:26:11.615Z,14.70
2018-06-22T17:28:39.886Z,18.60
2018-06-22T17:31:08.802Z,15.63
2018-06-22T17:33:37.177Z,17.53
2018-06-22T17:36:05.527Z,12.87
2018-06-22T17:38:34.147Z,19.30
2018-06-22T17:41:02.782Z,19.93
2018-06-22T17:43:31.137Z,13.53
2018-06-22T17:45:59.416Z,19.03
2018-06-22T17:48:27.915Z,17.10
2018-06-22T17:50:56.294Z,19.30
2018-06-22T17:53:24.620Z,17.30
2018-06-22T17:55:53.074Z,14.73
2018-06-22T17:58:21.502Z,18.57
2018-06-22T18:00:55.309Z,18.13
2018-06-22T18:03:29.237Z,20.97
2018-06-22T18:06:02.891Z,25.87
2018-06-22T18:08:36.675Z,17.50
2018-06-22T18:11:10.288Z,14.03
2018-06-22T18:13:38.700Z,20.90
2018-06-22T18:16:07.532Z,17.63
2018-06-22T18:18:36.007Z,20.03
2018-06-22T18:21:04.370Z,22.63
2018-06-22T18:23:32.696Z,21.17
2018-06-22T18:26:00.985Z,21.03
2018-06-22T18:28:29.267Z,18.30
2018-06-22T18:30:57.578Z,20.13
2018-06-22T18:33:25.896Z,15.37
2018-06-22T18:35:54.185Z,14.87
2018-06-22T18:38:22.457Z,18.63
2018-06-22T18:40:50.746Z,17.13
2018-06-22T18:43:24.297Z,15.57
2018-06-22T18:45:52.629Z,20.93
2018-06-22T18:48:20.937Z,19.60
2018-06-22T18:50:49.243Z,21.80
2018-06-22T18:53:22.871Z,20.70
2018-06-22T18:55:56.668Z,14.50
2018-06-22T18:58:30.297Z,18.23
2018-06-22T19:01:04.060Z,14.10
2018-06-22T19:03:38.017Z,14.23
2018-06-22T19:06:06.423Z,19.47
2018-06-22T19:08:34.745Z,17.57
2018-06-22T19:11:03.460Z,16.77
2018-06-22T19:13:32.102Z,17.23
2018-06-22T19:16:00.820Z,16.60
2018-06-22T19:18:29.074Z,20.27
2018-06-22T19:20:57.345Z,18.13
2018-06-22T19:23:25.660Z,21.80
2018-06-22T19:25:53.961Z,21.87
2018-06-22T19:28:22.266Z,18.20
2018-06-22T19:30:50.923Z,15.10
2018-06-22T19:33:19.332Z,13.63
2018-06-22T19:35:47.652Z,16.73
2018-06-22T19:38:15.994Z,15.27
2018-06-22T19:40:44.713Z,16.43
2018-06-22T19:43:18.440Z,17.30
2018-06-22T19:45:52.176Z,14.73
2018-06-22T19:48:25.181Z,17.07
2018-06-22T19:50:59.204Z,18.33
2018-06-22T19:53:32.806Z,12.40
2018-06-22T19:56:01.125Z,12.40
2018-06-22T19:58:29.465Z,15.00
2018-06-22T20:00:57.830Z,12.73
2018-06-22T20:03:26.406Z,19.60
2018-06-22T20:05:54.754Z,18.20
2018-06-22T20:08:23.375Z,17.60
2018-06-22T20:10:51.964Z,14.97
2018-06-22T20:13:20.346Z,17.90
2018-06-22T20:15:48.672Z,16.33
2018-06-22T20:18:17.022Z,15.93
2018-06-22T20:20:45.297Z,13.67
2018-06-22T20:23:13.636Z,15.00
2018-06-22T20:25:45.718Z,15.60
2018-06-22T20:28:15.267Z,12.03
2018-06-22T20:30:44.556Z,16.00
2018-06-22T20:33:13.220Z,17.80
2018-06-22T20:35:46.980Z,15.73
2018-06-22T20:38:20.545Z,19.20
2018-06-22T20:40:54.479Z,15.93
2018-06-22T20:43:28.183Z,15.07
2018-06-22T20:45:57.764Z,19.83
2018-06-22T20:48:31.628Z,18.13
2018-06-22T20:51:00.179Z,13.33
2018-06-22T20:53:28.537Z,14.10
2018-06-22T20:55:56.936Z,14.27
2018-06-22T20:58:25.226Z,20.73
2018-06-22T21:00:53.544Z,11.60
2018-06-22T21:03:21.935Z,18.47
2018-06-22T21:05:50.280Z,18.03
2018-06-22T21:08:18.624Z,17.87
2018-06-22T21:10:46.927Z,14.97
2018-06-22T21:13:15.586Z,17.33
2018-06-22T21:15:43.900Z,16.40
2018-06-22T21:18:12.727Z,15.83
2018-06-22T21:20:46.788Z,11.43
2018-06-22T21:30:05.010Z,14.83
2018-06-22T21:32:38.765Z,11.70
2018-06-22T21:35:13.292Z,17.00
2018-06-22T21:37:47.564Z,13.20
2018-06-22T21:40:15.898Z,13.60
2018-06-22T21:42:44.675Z,13.90
2018-06-22T21:45:13.598Z,14.20
2018-06-22T21:47:41.937Z,17.67
2018-06-22T21:50:10.971Z,14.33
2018-06-22T21:52:39.345Z,12.03
2018-06-22T21:55:07.382Z,12.53
2018-06-22T21:57:35.741Z,11.07
2018-06-22T22:00:05.699Z,14.83
2018-06-22T22:02:34.750Z,13.93
2018-06-22T22:05:03.050Z,9.40
2018-06-22T22:07:31.327Z,15.33
2018-06-22T22:09:59.957Z,17.33
2018-06-22T22:12:28.682Z,17.50
2018-06-22T22:14:56.964Z,11.30
2018-06-22T22:17:25.249Z,18.50
2018-06-22T22:19:53.538Z,14.43
2018-06-22T22:22:21.843Z,13.20
2018-06-22T22:24:50.579Z,18.20
2018-06-22T22:27:18.860Z,15.90
2018-06-22T22:29:47.189Z,13.87
2018-06-22T22:32:15.480Z,13.07
2018-06-22T22:34:44.100Z,15.57
2018-06-22T22:37:12.629Z,15.30
2018-06-22T22:39:41.025Z,16.07
2018-06-22T22:42:09.543Z,12.93
2018-06-22T22:44:37.840Z,11.63
2018-06-22T22:47:06.160Z,14.73
2018-06-22T22:56:18.369Z,19.80
2018-06-22T22:58:46.664Z,16.13
2018-06-22T23:01:14.936Z,17.43
2018-06-22T23:03:43.221Z,11.70
2018-06-22T23:06:11.471Z,18.00
2018-06-22T23:08:39.778Z,17.83
2018-06-22T23:11:08.108Z,12.10
2018-06-22T23:13:36.382Z,17.63
2018-06-22T23:16:05.004Z,15.70
2018-06-22T23:18:33.783Z,14.77
2018-06-22T23:21:02.296Z,15.57
2018-06-22T23:23:33.615Z,15.13
2018-06-22T23:26:02.650Z,11.77
2018-06-22T23:28:31.431Z,14.97
2018-06-22T23:31:01.167Z,14.47
2018-06-22T23:33:30.254Z,14.10
2018-06-22T23:35:59.064Z,13.53
2018-06-22T23:38:27.395Z,11.20
2018-06-22T23:40:55.900Z,19.03
2018-06-22T23:43:24.172Z,11.57
2018-06-22T23:45:52.492Z,17.53
2018-06-22T23:48:20.751Z,11.83
2018-06-22T23:50:49.058Z,9.33
2018-06-22T23:53:17.360Z,16.37
2018-06-22T23:55:45.653Z,12.80
2018-06-22T23:58:13.909Z,15.67
